createdAt,value
2023-02-16T00:00:39.839Z,4.30
2023-02-16T00:03:10.005Z,4.20
2023-02-16T00:05:36.657Z,4.20
2023-02-16T00:08:03.282Z,4.10
2023-02-16T00:10:34.247Z,4.10
2023-02-16T00:13:19.804Z,4.10
2023-02-16T00:15:47.030Z,4.10
2023-02-16T00:18:18.236Z,4.00
2023-02-16T00:20:45.024Z,4.00
2023-02-16T00:23:11.621Z,4.00
2023-02-16T00:25:38.374Z,4.00
2023-02-16T00:28:07.879Z,4.00
2023-02-16T00:30:34.597Z,4.00
2023-02-16T00:33:01.489Z,4.00
2023-02-16T00:35:28.211Z,3.90
2023-02-16T00:37:54.815Z,3.90
2023-02-16T00:40:21.431Z,3.90
2023-02-16T00:42:48.071Z,3.80
2023-02-16T00:45:16.775Z,3.80
2023-02-16T00:47:44.667Z,3.70
2023-02-16T00:50:15.131Z,3.70
2023-02-16T00:52:46.335Z,3.70
2023-02-16T00:55:16.729Z,3.60
2023-02-16T00:57:46.696Z,3.50
2023-02-16T01:00:22.969Z,3.50
2023-02-16T01:02:53.047Z,3.50
2023-02-16T01:05:19.926Z,3.40
2023-02-16T01:08:05.352Z,3.30
2023-02-16T01:10:52.904Z,3.30
2023-02-16T01:13:19.554Z,3.30
2023-02-16T01:15:46.305Z,3.20
2023-02-16T01:18:14.218Z,3.30
2023-02-16T01:20:40.817Z,3.20
2023-02-16T01:23:08.908Z,3.20
2023-02-16T01:25:36.260Z,3.20
2023-02-16T01:28:03.356Z,3.20
2023-02-16T01:30:30.052Z,3.10
2023-02-16T01:32:56.773Z,3.10
2023-02-16T01:35:33.885Z,3.00
2023-02-16T01:38:00.551Z,2.90
2023-02-16T01:40:35.825Z,2.90
2023-02-16T01:43:18.900Z,2.90
2023-02-16T01:45:47.098Z,2.80
2023-02-16T01:48:18.188Z,2.80
2023-02-16T01:50:57.156Z,2.80
2023-02-16T01:53:30.453Z,2.70
2023-02-16T01:56:03.852Z,2.70
2023-02-16T01:58:36.698Z,2.70
2023-02-16T02:01:05.097Z,2.70
2023-02-16T02:03:53.751Z,2.70
2023-02-16T02:06:32.648Z,2.60
2023-02-16T02:09:06.242Z,2.60
2023-02-16T02:11:35.717Z,2.60
2023-02-16T02:14:07.231Z,2.60
2023-02-16T02:16:34.741Z,2.60
2023-02-16T02:19:01.502Z,2.50
2023-02-16T02:22:06.452Z,2.50
2023-02-16T02:24:48.392Z,2.50
2023-02-16T02:27:23.979Z,2.50
2023-02-16T02:30:11.272Z,2.50
2023-02-16T02:32:44.108Z,2.40
2023-02-16T02:35:18.704Z,2.50
2023-02-16T02:37:48.125Z,2.50
2023-02-16T02:40:18.430Z,2.60
2023-02-16T02:42:54.223Z,2.60
2023-02-16T02:45:29.788Z,2.60
2023-02-16T02:48:06.314Z,2.60
2023-02-16T02:51:04.518Z,2.50
2023-02-16T02:53:34.190Z,2.60
2023-02-16T02:56:21.250Z,2.50
2023-02-16T02:59:08.750Z,2.50
2023-02-16T03:01:36.555Z,2.50
2023-02-16T03:04:04.090Z,2.50
2023-02-16T03:06:33.886Z,2.50
2023-02-16T03:09:02.469Z,2.50
2023-02-16T03:11:48.358Z,2.50
2023-02-16T03:14:15.134Z,2.50
2023-02-16T03:16:46.818Z,2.50
2023-02-16T03:19:34.406Z,2.60
2023-02-16T03:22:20.075Z,2.50
2023-02-16T03:25:05.538Z,2.50
2023-02-16T03:27:53.923Z,2.50
2023-02-16T03:30:21.428Z,2.60
2023-02-16T03:32:48.585Z,2.50
2023-02-16T03:35:15.483Z,2.50
2023-02-16T03:37:43.393Z,2.50
2023-02-16T03:40:30.948Z,2.50
2023-02-16T03:42:58.632Z,2.50
2023-02-16T03:45:25.632Z,2.50
2023-02-16T03:47:52.533Z,2.50
2023-02-16T03:50:19.151Z,2.50
2023-02-16T03:52:45.811Z,2.50
2023-02-16T03:55:12.416Z,2.40
2023-02-16T03:57:39.574Z,2.50
2023-02-16T04:00:06.507Z,2.50
2023-02-16T04:02:39.714Z,2.50
2023-02-16T04:05:06.532Z,2.50
2023-02-16T04:07:33.153Z,2.50
2023-02-16T04:09:59.765Z,2.50
2023-02-16T04:12:38.321Z,2.60
2023-02-16T04:15:06.183Z,2.60
2023-02-16T04:17:32.799Z,2.60
2023-02-16T04:19:59.411Z,2.60
2023-02-16T04:22:26.115Z,2.50
2023-02-16T04:24:52.749Z,2.50
2023-02-16T04:27:19.665Z,2.50
2023-02-16T04:29:46.292Z,2.50
2023-02-16T04:32:12.974Z,2.40
2023-02-16T04:34:39.759Z,2.40
2023-02-16T04:37:06.510Z,2.40
2023-02-16T04:39:33.268Z,2.30
2023-02-16T04:41:59.878Z,2.30
2023-02-16T04:44:26.532Z,2.40
2023-02-16T04:46:53.172Z,2.40
2023-02-16T04:49:19.856Z,2.40
2023-02-16T04:51:46.454Z,2.40
2023-02-16T04:54:13.116Z,2.40
2023-02-16T04:56:39.732Z,2.40
2023-02-16T04:59:06.396Z,2.30
2023-02-16T05:01:33.105Z,2.30
2023-02-16T05:03:59.851Z,2.30
2023-02-16T05:06:26.502Z,2.30
2023-02-16T05:08:53.118Z,2.30
2023-02-16T05:11:38.436Z,2.30
2023-02-16T05:14:23.943Z,2.30
2023-02-16T05:16:50.930Z,2.30
2023-02-16T05:19:17.527Z,2.30
2023-02-16T05:21:44.114Z,2.30
2023-02-16T05:24:11.516Z,2.30
2023-02-16T05:26:41.955Z,2.30
2023-02-16T05:29:08.675Z,2.30
2023-02-16T05:31:35.413Z,2.30
2023-02-16T05:34:02.141Z,2.30
2023-02-16T05:36:28.820Z,2.20
2023-02-16T05:38:55.772Z,2.20
2023-02-16T05:41:25.163Z,2.20
2023-02-16T05:43:56.180Z,2.20
2023-02-16T05:46:23.813Z,2.20
2023-02-16T05:48:50.698Z,2.20
2023-02-16T05:51:17.815Z,2.20
2023-02-16T05:53:44.740Z,2.30
2023-02-16T05:56:11.695Z,2.30
2023-02-16T05:58:38.544Z,2.30
2023-02-16T06:01:05.781Z,2.30
2023-02-16T06:03:33.068Z,2.30
2023-02-16T06:06:00.668Z,2.30
2023-02-16T06:08:27.641Z,2.30
2023-02-16T06:10:54.488Z,2.30
2023-02-16T06:13:21.868Z,2.30
2023-02-16T06:15:51.669Z,2.30
2023-02-16T06:18:18.343Z,2.40
2023-02-16T06:20:44.968Z,2.40
2023-02-16T06:23:12.289Z,2.40
2023-02-16T06:25:41.343Z,2.40
2023-02-16T06:28:07.962Z,2.40
2023-02-16T06:30:35.345Z,2.40
2023-02-16T06:33:02.376Z,2.30
2023-02-16T06:35:29.135Z,2.30
2023-02-16T06:37:55.723Z,2.30
2023-02-16T06:40:22.585Z,2.30
2023-02-16T06:42:49.181Z,2.30
2023-02-16T06:45:15.814Z,2.20
2023-02-16T06:48:07.479Z,2.20
2023-02-16T06:50:59.671Z,2.20
2023-02-16T06:53:26.464Z,2.20
2023-02-16T06:55:53.152Z,2.20
2023-02-16T06:58:19.852Z,2.30
2023-02-16T07:00:46.579Z,2.30
2023-02-16T10:51:51.294Z,18.10
2023-02-16T10:54:25.508Z,18.20
2023-02-16T10:57:01.016Z,18.60
2023-02-16T10:59:37.123Z,18.70
2023-02-16T11:02:15.904Z,18.60
2023-02-16T11:04:44.551Z,18.80
2023-02-16T11:07:16.922Z,18.80
2023-02-16T11:09:44.665Z,18.90
2023-02-16T11:12:14.830Z,19.00
2023-02-16T11:17:47.118Z,18.90
2023-02-16T11:20:45.142Z,18.70
2023-02-16T11:23:27.705Z,18.90
2023-02-16T11:25:54.460Z,19.10
2023-02-16T11:28:47.981Z,19.40
2023-02-16T11:31:33.662Z,19.70
2023-02-16T11:34:02.571Z,19.90
2023-02-16T11:36:36.088Z,20.30
2023-02-16T11:39:08.038Z,20.40
2023-02-16T11:41:35.428Z,20.10
2023-02-16T11:44:03.172Z,19.70
2023-02-16T11:46:38.868Z,19.30
2023-02-16T11:49:24.899Z,18.80
2023-02-16T11:51:52.987Z,18.50
2023-02-16T11:54:38.492Z,18.30
2023-02-16T11:57:15.679Z,18.30
2023-02-16T11:59:42.500Z,18.20
2023-02-16T12:02:12.495Z,17.80
2023-02-16T12:04:39.116Z,17.40
2023-02-16T12:07:20.278Z,17.10
2023-02-16T12:10:07.233Z,16.90
2023-02-16T12:12:40.222Z,16.80
2023-02-16T12:15:22.617Z,16.70
2023-02-16T12:18:07.878Z,16.20
2023-02-16T12:20:45.295Z,15.50
2023-02-16T12:23:23.240Z,15.00
2023-02-16T12:25:56.092Z,14.60
2023-02-16T12:28:32.383Z,14.30
2023-02-16T12:31:11.613Z,14.00
2023-02-16T12:33:49.641Z,13.80
2023-02-16T12:36:34.844Z,13.30
2023-02-16T12:39:07.601Z,12.90
2023-02-16T12:41:43.938Z,12.70
2023-02-16T12:44:20.146Z,12.50
2023-02-16T12:46:48.637Z,12.60
2023-02-16T12:49:17.973Z,13.00
2023-02-16T12:51:52.064Z,13.10
2023-02-16T12:54:27.796Z,13.40
2023-02-16T12:57:01.178Z,13.60
2023-02-16T12:59:35.919Z,13.90
2023-02-16T13:02:04.708Z,14.40
2023-02-16T13:04:57.422Z,14.80
2023-02-16T13:07:38.240Z,15.20
2023-02-16T13:10:23.514Z,15.30
2023-02-16T13:12:50.375Z,15.10
2023-02-16T13:15:27.060Z,14.60
2023-02-16T13:17:58.531Z,14.20
2023-02-16T13:20:25.205Z,13.60
2023-02-16T13:23:08.108Z,13.10
2023-02-16T13:25:43.114Z,12.70
2023-02-16T13:28:25.341Z,12.50
2023-02-16T13:31:15.559Z,12.30
2023-02-16T13:34:00.116Z,12.10
2023-02-16T13:36:48.970Z,12.00
2023-02-16T13:39:24.802Z,11.90
2023-02-16T13:41:57.551Z,11.70
2023-02-16T13:44:28.047Z,11.60
2023-02-16T13:46:55.028Z,11.40
2023-02-16T13:49:31.213Z,11.40
2023-02-16T13:51:58.407Z,11.20
2023-02-16T13:54:30.353Z,11.10
2023-02-16T13:56:57.418Z,11.00
2023-02-16T13:59:24.099Z,10.90
2023-02-16T14:01:51.822Z,10.80
2023-02-16T14:04:21.686Z,10.70
2023-02-16T14:07:13.346Z,10.60
2023-02-16T14:09:39.968Z,10.50
2023-02-16T14:12:16.594Z,10.40
2023-02-16T14:14:43.225Z,10.40
2023-02-16T14:17:18.965Z,10.20
2023-02-16T14:19:58.067Z,10.10
2023-02-16T14:22:28.014Z,9.90
2023-02-16T14:24:55.938Z,9.80
2023-02-16T14:27:41.374Z,9.70
2023-02-16T14:30:27.084Z,9.70
2023-02-16T14:32:57.611Z,9.50
2023-02-16T14:35:33.996Z,9.40
2023-02-16T14:38:00.747Z,9.40
2023-02-16T14:40:59.702Z,9.30
2023-02-16T14:43:26.476Z,9.20
2023-02-16T14:46:11.948Z,9.10
2023-02-16T14:48:56.681Z,9.00
2023-02-16T14:51:42.256Z,8.90
2023-02-16T14:54:37.184Z,8.90
2023-02-16T14:57:23.455Z,8.80
2023-02-16T15:00:00.998Z,8.70
2023-02-16T15:02:35.345Z,8.70
2023-02-16T15:05:19.347Z,8.70
2023-02-16T15:07:47.988Z,8.70
2023-02-16T15:10:14.926Z,8.60
2023-02-16T15:12:44.016Z,8.60
2023-02-16T15:15:18.251Z,8.60
2023-02-16T15:17:46.128Z,8.60
2023-02-16T15:20:31.115Z,8.60
2023-02-16T15:22:59.648Z,8.50
2023-02-16T15:25:32.592Z,8.50
2023-02-16T15:28:00.629Z,8.50
2023-02-16T15:30:35.017Z,8.50
2023-02-16T15:33:03.711Z,8.50
2023-02-16T15:35:30.672Z,8.40
2023-02-16T15:38:05.587Z,8.40
2023-02-16T15:40:35.108Z,8.40
2023-02-16T15:43:10.154Z,8.40
2023-02-16T15:45:40.900Z,8.30
2023-02-16T15:48:20.241Z,8.30
2023-02-16T15:50:47.063Z,8.30
2023-02-16T15:53:14.940Z,8.30
2023-02-16T15:55:45.690Z,8.30
2023-02-16T15:58:14.788Z,8.20
2023-02-16T16:00:42.471Z,8.20
2023-02-16T16:03:10.252Z,8.20
2023-02-16T16:05:36.970Z,8.20
2023-02-16T16:08:04.320Z,8.20
2023-02-16T16:10:32.543Z,8.20
2023-02-16T16:13:01.403Z,8.10
2023-02-16T16:15:29.003Z,8.10
2023-02-16T16:17:59.678Z,8.10
2023-02-16T16:20:29.155Z,8.10
2023-02-16T16:23:04.982Z,8.10
2023-02-16T16:25:37.768Z,8.10
2023-02-16T16:28:06.615Z,8.10
2023-02-16T16:30:34.745Z,8.00
2023-02-16T16:33:05.829Z,8.00
2023-02-16T16:35:43.952Z,8.00
2023-02-16T16:38:27.822Z,7.90
2023-02-16T16:40:58.557Z,7.90
2023-02-16T16:43:29.763Z,7.80
2023-02-16T16:46:16.814Z,7.80
2023-02-16T16:48:45.120Z,7.80
2023-02-16T16:51:23.920Z,7.80
2023-02-16T16:53:50.773Z,7.70
2023-02-16T16:56:18.810Z,7.70
2023-02-16T16:58:53.131Z,7.70
2023-02-16T17:01:23.288Z,7.70
2023-02-16T17:03:50.264Z,7.70
2023-02-16T17:06:18.292Z,7.70
2023-02-16T17:08:45.590Z,7.70
2023-02-16T17:11:35.555Z,7.70
2023-02-16T17:14:15.488Z,7.70
2023-02-16T17:16:43.759Z,7.70
2023-02-16T17:19:14.864Z,7.70
2023-02-16T17:21:42.132Z,7.70
2023-02-16T17:24:10.067Z,7.70
2023-02-16T17:26:37.721Z,7.70
2023-02-16T17:29:05.383Z,7.70
2023-02-16T17:31:32.589Z,7.70
2023-02-16T17:33:59.372Z,7.60
2023-02-16T17:36:27.318Z,7.70
2023-02-16T17:38:54.086Z,7.60
2023-02-16T17:41:22.235Z,7.60
2023-02-16T17:43:49.095Z,7.60
2023-02-16T17:46:16.420Z,7.50
2023-02-16T17:48:43.159Z,7.50
2023-02-16T17:51:17.019Z,7.50
2023-02-16T17:53:43.678Z,7.40
2023-02-16T17:56:14.404Z,7.40
2023-02-16T17:58:41.405Z,7.40
2023-02-16T18:01:10.217Z,7.30
2023-02-16T18:03:36.991Z,7.30
2023-02-16T18:06:03.971Z,7.30
2023-02-16T18:08:30.900Z,7.20
2023-02-16T18:11:02.004Z,7.20
2023-02-16T18:13:29.960Z,7.20
2023-02-16T18:15:58.135Z,7.20
2023-02-16T18:18:24.872Z,7.20
2023-02-16T18:20:51.500Z,7.10
2023-02-16T18:23:18.181Z,7.10
2023-02-16T18:25:45.692Z,7.10
2023-02-16T18:28:20.012Z,7.10
2023-02-16T18:30:48.474Z,7.10
2023-02-16T18:33:15.434Z,7.10
2023-02-16T18:35:42.082Z,7.20
2023-02-16T18:38:08.726Z,7.10
2023-02-16T18:40:35.377Z,7.10
2023-02-16T18:43:02.043Z,7.20
2023-02-16T18:45:28.730Z,7.20
2023-02-16T18:47:55.635Z,7.20
2023-02-16T18:50:22.252Z,7.10
2023-02-16T18:52:48.916Z,7.10
2023-02-16T18:55:15.812Z,7.00
2023-02-16T18:57:42.688Z,7.00
2023-02-16T19:00:10.509Z,7.00
2023-02-16T19:02:37.437Z,7.00
2023-02-16T19:05:04.374Z,6.90
2023-02-16T19:07:31.060Z,6.90
2023-02-16T19:09:57.743Z,6.90
2023-02-16T19:12:24.959Z,6.90
2023-02-16T19:14:51.695Z,6.90
2023-02-16T19:17:18.351Z,6.90
2023-02-16T19:19:45.834Z,6.90
2023-02-16T19:22:12.644Z,6.80
2023-02-16T19:24:39.265Z,6.90
2023-02-16T19:27:06.085Z,6.90
2023-02-16T19:29:32.867Z,6.90
2023-02-16T19:31:59.588Z,6.80
2023-02-16T19:34:26.283Z,6.80
2023-02-16T19:36:52.914Z,6.90
2023-02-16T19:39:19.657Z,6.90
2023-02-16T19:41:46.349Z,6.90
2023-02-16T19:44:14.329Z,6.90
2023-02-16T19:46:41.494Z,6.90
2023-02-16T19:49:08.557Z,6.90
2023-02-16T19:51:35.183Z,6.80
2023-02-16T19:54:02.105Z,6.80
2023-02-16T19:56:28.779Z,6.80
2023-02-16T19:58:57.078Z,6.80
2023-02-16T20:01:25.050Z,6.80
2023-02-16T20:03:52.215Z,6.80
2023-02-16T20:06:20.015Z,6.80
2023-02-16T20:08:47.129Z,6.80
2023-02-16T20:11:14.315Z,6.80
2023-02-16T20:13:40.965Z,6.80
2023-02-16T20:16:08.776Z,6.80
2023-02-16T20:18:35.627Z,6.80
2023-02-16T20:21:03.974Z,6.70
2023-02-16T20:23:31.117Z,6.70
2023-02-16T20:25:58.125Z,6.70
2023-02-16T20:28:25.542Z,6.70
2023-02-16T20:30:52.781Z,6.70
2023-02-16T20:33:20.208Z,6.80
2023-02-16T20:35:47.569Z,6.80
2023-02-16T20:38:15.004Z,6.80
2023-02-16T20:40:42.171Z,6.80
2023-02-16T20:43:09.020Z,6.80
2023-02-16T20:45:41.091Z,6.80
2023-02-16T20:48:08.571Z,6.80
2023-02-16T20:50:35.376Z,6.80
2023-02-16T20:53:02.054Z,6.90
2023-02-16T20:55:28.658Z,6.90
2023-02-16T20:57:55.362Z,6.90
2023-02-16T21:00:25.215Z,6.90
2023-02-16T21:02:52.147Z,6.90
2023-02-16T21:05:19.402Z,6.90
2023-02-16T21:07:48.045Z,6.80
2023-02-16T21:10:15.955Z,6.80
2023-02-16T21:12:42.729Z,6.90
2023-02-16T21:15:10.085Z,6.90
2023-02-16T21:17:37.174Z,6.90
2023-02-16T21:20:05.216Z,6.90
2023-02-16T21:22:32.045Z,7.00
2023-02-16T21:24:58.737Z,7.00
2023-02-16T21:27:25.364Z,7.00
2023-02-16T21:29:52.434Z,7.00
2023-02-16T21:32:19.369Z,7.00
2023-02-16T21:34:46.408Z,7.00
2023-02-16T21:37:13.096Z,6.90
2023-02-16T21:39:58.666Z,7.00
2023-02-16T21:42:25.567Z,6.90
2023-02-16T21:45:12.517Z,6.80
2023-02-16T21:47:58.920Z,6.80
2023-02-16T21:50:26.237Z,6.80
2023-02-16T21:52:53.509Z,6.80
2023-02-16T21:55:39.058Z,6.90
2023-02-16T21:58:07.852Z,6.80
2023-02-16T22:00:35.426Z,6.90
2023-02-16T22:03:02.536Z,6.90
2023-02-16T22:05:29.321Z,6.90
2023-02-16T22:07:56.028Z,6.90
2023-02-16T22:10:22.662Z,6.90
2023-02-16T22:12:49.340Z,6.90
2023-02-16T22:15:15.971Z,6.90
2023-02-16T22:17:42.632Z,6.90
2023-02-16T22:20:10.280Z,7.00
2023-02-16T22:22:37.666Z,7.00
2023-02-16T22:25:04.528Z,7.00
2023-02-16T22:27:31.330Z,7.10
2023-02-16T22:29:58.024Z,7.10
2023-02-16T22:32:24.872Z,7.20
2023-02-16T22:34:51.491Z,7.20
2023-02-16T22:37:18.152Z,7.30
2023-02-16T22:39:44.776Z,7.30
2023-02-16T22:42:11.379Z,7.30
2023-02-16T22:44:38.116Z,7.30
2023-02-16T22:47:04.788Z,7.30
2023-02-16T22:49:31.602Z,7.30
2023-02-16T22:51:58.264Z,7.30
2023-02-16T22:54:25.074Z,7.30
2023-02-16T22:56:51.831Z,7.30
2023-02-16T22:59:18.673Z,7.30
2023-02-16T23:01:45.380Z,7.30
2023-02-16T23:04:15.854Z,7.30
2023-02-16T23:06:44.821Z,7.30
2023-02-16T23:09:14.059Z,7.30
2023-02-16T23:11:40.787Z,7.30
2023-02-16T23:14:16.135Z,7.30
2023-02-16T23:16:47.965Z,7.40
2023-02-16T23:19:16.615Z,7.30
2023-02-16T23:21:43.616Z,7.30
2023-02-16T23:24:12.878Z,7.30
2023-02-16T23:26:39.671Z,7.20
2023-02-16T23:29:07.353Z,7.20
2023-02-16T23:31:34.892Z,7.20
2023-02-16T23:34:02.615Z,7.10
2023-02-16T23:36:29.761Z,7.10
2023-02-16T23:38:59.400Z,7.10
2023-02-16T23:41:26.119Z,7.00
2023-02-16T23:43:53.000Z,7.10
2023-02-16T23:46:19.773Z,7.10
2023-02-16T23:48:46.448Z,7.10
2023-02-16T23:51:13.418Z,7.10
2023-02-16T23:53:40.217Z,7.20
2023-02-16T23:56:17.574Z,7.20
2023-02-16T23:58:47.806Z,7.20
